Time;durP1;ratioP1;P1;durP2;ratioP2;P2;SDS_P1;SDS_P2;PMS_P1;PMS_P2;Temp;Humidity;BMP_temperature;BMP_pressure;BME280_temperature;BME280_humidity;BME280_pressure;Samples;Min_cycle;Max_cycle;Signal;HPM_P1;HPM_P2
2021/06/11 00:00:07;;;;;;;8.98;4.37;;;;;;;19.06;69.42;99947.80;1818040;77;20987;-63
2021/06/11 00:02:35;;;;;;;7.00;4.35;;;;;;;19.06;69.42;99941.63;1814910;77;21169;-64
2021/06/11 00:05:02;;;;;;;6.65;3.80;;;;;;;19.03;69.38;99949.51;1806781;77;21010;-64
2021/06/11 00:07:29;;;;;;;6.90;4.50;;;;;;;18.99;69.34;99943.40;1813506;78;21034;-63
2021/06/11 00:09:56;;;;;;;8.40;4.80;;;;;;;19.02;69.21;99946.52;1818610;77;20987;-63
2021/06/11 00:12:22;;;;;;;7.53;4.42;;;;;;;19.05;69.26;99950.66;1811454;77;21548;-63
2021/06/11 00:14:48;;;;;;;7.53;4.60;;;;;;;19.05;69.22;99956.80;1797131;78;21096;-64
2021/06/11 00:17:15;;;;;;;8.53;4.90;;;;;;;19.04;69.19;99950.33;1796003;77;20970;-63
2021/06/11 00:19:41;;;;;;;7.20;4.70;;;;;;;19.00;69.26;99954.40;1803339;77;21508;-63
2021/06/11 00:22:08;;;;;;;10.75;5.00;;;;;;;19.00;69.22;99949.88;1795808;79;21003;-63
2021/06/11 00:24:34;;;;;;;8.28;4.78;;;;;;;18.99;69.20;99952.73;1796210;79;21003;-64
2021/06/11 00:27:01;;;;;;;7.78;4.95;;;;;;;18.99;69.17;99951.40;1792827;79;21114;-62
2021/06/11 00:29:27;;;;;;;9.23;4.62;;;;;;;19.04;69.02;99956.47;1780818;79;21421;-63
2021/06/11 00:31:54;;;;;;;9.95;4.55;;;;;;;19.07;69.03;99954.77;1804471;77;21058;-65
2021/06/11 00:34:20;;;;;;;7.42;4.92;;;;;;;19.08;68.98;99959.09;1795299;78;21085;-65
2021/06/11 00:36:46;;;;;;;8.73;5.15;;;;;;;19.09;69.05;99958.58;1789611;79;21022;-63
2021/06/11 00:39:13;;;;;;;8.70;5.05;;;;;;;19.09;69.07;99958.06;1795386;79;22414;-62
2021/06/11 00:41:40;;;;;;;8.58;5.00;;;;;;;19.09;69.09;99958.06;1794588;79;21086;-64
2021/06/11 00:44:06;;;;;;;7.87;4.67;;;;;;;19.12;68.95;99963.55;1799330;79;21039;-62
2021/06/11 00:46:32;;;;;;;7.97;4.75;;;;;;;19.17;68.90;99958.47;1800653;79;21038;-63
2021/06/11 00:48:59;;;;;;;6.35;4.47;;;;;;;19.23;68.83;99962.20;1800682;77;21101;-65
2021/06/11 00:51:26;;;;;;;8.28;5.42;;;;;;;19.26;68.66;99958.65;1796398;77;21143;-63
2021/06/11 00:53:52;;;;;;;6.70;4.67;;;;;;;19.27;68.60;99962.16;1787967;78;21580;-64
2021/06/11 00:56:19;;;;;;;8.35;4.67;;;;;;;19.22;68.76;99961.91;1799768;79;21061;-63
2021/06/11 00:58:45;;;;;;;6.60;4.53;;;;;;;19.17;68.87;99961.66;1740542;80;21033;-64
2021/06/11 01:01:11;;;;;;;7.28;5.17;;;;;;;19.13;68.90;99963.84;1734738;80;21116;-63
2021/06/11 01:03:38;;;;;;;8.83;5.03;;;;;;;19.12;68.87;99963.55;1756217;80;21112;-62
2021/06/11 01:06:05;;;;;;;9.38;5.65;;;;;;;19.06;69.02;99961.63;1744115;81;21026;-63
2021/06/11 01:08:32;;;;;;;9.00;6.35;;;;;;;19.04;69.11;99962.33;1732487;81;21556;-63
2021/06/11 01:10:59;;;;;;;8.28;5.95;;;;;;;19.00;69.14;99963.21;1735629;81;21168;-63
2021/06/11 01:13:25;;;;;;;9.85;6.50;;;;;;;18.94;69.26;99966.10;1739804;81;21556;-62
2021/06/11 01:15:52;;;;;;;8.15;5.60;;;;;;;18.87;69.44;99972.39;1733806;81;21141;-63
2021/06/11 01:18:19;;;;;;;7.17;5.15;;;;;;;18.86;69.44;99968.06;1722426;81;21042;-62
2021/06/11 01:20:47;;;;;;;7.83;5.67;;;;;;;18.86;69.45;99972.05;1740250;81;21086;-64
2021/06/11 01:23:48;;;;;;;9.10;6.00;;;;;;;18.87;69.62;99975.05;1715266;81;21757;-63
2021/06/11 01:26:31;;;;;;;8.03;6.03;;;;;;;18.84;69.71;99968.76;1741155;81;21116;-62
2021/06/11 01:29:02;;;;;;;7.58;4.95;;;;;;;18.79;69.94;99973.80;1738677;81;21055;-62
2021/06/11 01:31:30;;;;;;;6.60;4.08;;;;;;;18.78;70.19;99978.80;1747142;81;21049;-62
2021/06/11 01:34:07;;;;;;;6.12;3.50;;;;;;;18.80;70.17;99976.28;1737004;81;21070;-63
2021/06/11 01:36:39;;;;;;;6.20;3.65;;;;;;;18.80;70.01;99976.80;1748495;81;21026;-63
2021/06/11 01:39:07;;;;;;;15.32;3.45;;;;;;;18.79;69.89;99975.94;1738954;81;21584;-62
2021/06/11 01:41:35;;;;;;;7.42;4.00;;;;;;;18.76;69.68;99973.64;1740227;81;21084;-62
2021/06/11 01:44:02;;;;;;;6.65;3.60;;;;;;;18.73;69.48;99974.05;1711932;81;21097;-63
2021/06/11 01:46:31;;;;;;;7.12;3.72;;;;;;;18.70;69.49;99969.90;1746241;81;21113;-63
2021/06/11 01:48:58;;;;;;;5.70;3.10;;;;;;;18.71;69.41;99976.89;1734460;81;21085;-63
2021/06/11 01:51:24;;;;;;;5.67;3.33;;;;;;;18.76;69.35;99973.64;1740287;81;21604;-63
2021/06/11 01:53:51;;;;;;;6.08;3.20;;;;;;;18.80;69.18;99979.45;1741382;81;21137;-63
2021/06/11 01:56:18;;;;;;;5.22;3.05;;;;;;;18.78;69.04;99977.45;1747162;81;21061;-62
2021/06/11 01:58:48;;;;;;;5.53;3.15;;;;;;;18.76;68.85;99969.65;1739359;81;21073;-62
2021/06/11 02:01:13;;;;;;;7.50;3.42;;;;;;;18.76;68.65;99981.64;1721730;81;21089;-63
2021/06/11 02:03:40;;;;;;;5.75;3.80;;;;;;;18.77;68.60;99975.83;1739666;81;21117;-62
2021/06/11 02:06:08;;;;;;;5.92;3.60;;;;;;;18.75;68.39;99971.50;1721132;81;21596;-64
2021/06/11 02:08:34;;;;;;;5.40;3.40;;;;;;;18.69;68.62;99974.92;1737251;81;22470;-63
2021/06/11 02:11:01;;;;;;;6.47;3.70;;;;;;;18.65;68.74;99978.95;1714438;81;21077;-64
2021/06/11 02:13:29;;;;;;;5.65;3.15;;;;;;;18.65;68.80;99969.63;1713692;81;21106;-62
2021/06/11 02:15:55;;;;;;;6.60;3.30;;;;;;;18.70;68.70;99980.56;1749761;81;21450;-63
2021/06/11 02:18:22;;;;;;;7.30;3.67;;;;;;;18.71;68.68;99982.22;1741617;81;21496;-64
2021/06/11 02:20:52;;;;;;;6.08;3.20;;;;;;;18.68;68.84;99983.92;1746300;81;22430;-64
2021/06/11 02:23:19;;;;;;;5.67;3.62;;;;;;;18.63;68.82;99979.66;1741918;81;21125;-63
2021/06/11 02:25:46;;;;;;;6.45;3.83;;;;;;;18.62;69.00;99983.32;1741505;81;21065;-62
2021/06/11 02:28:16;;;;;;;6.55;3.98;;;;;;;18.64;68.92;99985.29;1747193;81;21058;-63
2021/06/11 02:30:44;;;;;;;6.67;4.00;;;;;;;18.66;69.00;99987.77;1735198;81;21144;-63
2021/06/11 02:33:14;;;;;;;6.05;3.80;;;;;;;18.64;68.92;99988.47;1716340;81;21579;-63
2021/06/11 02:35:41;;;;;;;8.60;4.12;;;;;;;18.62;69.09;99989.16;1739176;81;21100;-63
2021/06/11 02:38:08;;;;;;;5.47;3.08;;;;;;;18.59;69.12;99994.34;1736851;81;21025;-65
2021/06/11 02:40:34;;;;;;;6.67;3.12;;;;;;;18.58;69.25;99991.38;1740462;81;21068;-63
2021/06/11 02:43:06;;;;;;;8.25;3.62;;;;;;;18.63;69.23;99991.64;1701913;81;21186;-63
2021/06/11 02:45:36;;;;;;;5.90;3.95;;;;;;;18.68;69.14;99981.26;1745993;81;21065;-63
2021/06/11 02:48:29;;;;;;;6.05;3.85;;;;;;;18.73;69.00;99988.70;1750999;79;21730;-63
2021/06/11 02:51:07;;;;;;;7.10;3.65;;;;;;;18.72;68.98;99986.52;1729714;81;21042;-62
2021/06/11 02:53:34;;;;;;;7.03;3.55;;;;;;;18.68;69.15;99997.77;1724058;81;21564;-65
2021/06/11 02:56:12;;;;;;;8.35;3.67;;;;;;;18.70;69.15;100000.55;1740272;81;21160;-63
2021/06/11 02:59:01;;;;;;;6.22;3.60;;;;;;;18.74;69.15;99994.34;1715033;81;21087;-62
2021/06/11 03:01:27;;;;;;;6.75;3.52;;;;;;;18.77;69.16;99993.15;1743663;81;21577;-62
2021/06/11 03:03:54;;;;;;;8.23;4.15;;;;;;;18.82;69.41;99994.75;1744184;81;21014;-63
2021/06/11 03:06:22;;;;;;;6.58;4.15;;;;;;;18.82;69.66;99994.75;1724967;81;21101;-63
2021/06/11 03:08:50;;;;;;;7.10;3.87;;;;;;;18.82;69.73;99996.90;1747660;80;21155;-65
2021/06/11 03:11:29;;;;;;;6.62;4.60;;;;;;;18.85;69.79;99999.75;1720751;81;21094;-64
2021/06/11 03:13:51;;;;;;;10.03;4.72;;;;;;;18.86;69.87;99994.23;1742367;81;21049;-62
2021/06/11 03:16:17;;;;;;;7.25;4.92;;;;;;;18.86;70.03;99998.72;1744478;81;21067;-62
2021/06/11 03:18:54;;;;;;;7.15;4.97;;;;;;;18.81;70.15;99999.27;1719129;81;21014;-62
2021/06/11 03:21:45;;;;;;;9.38;4.42;;;;;;;18.79;70.43;100005.27;1746628;81;21104;-64
2021/06/11 03:24:34;;;;;;;7.00;3.75;;;;;;;18.82;70.67;100006.74;1723146;81;21031;-63
2021/06/11 03:27:08;;;;;;;7.53;4.55;;;;;;;18.88;70.49;100004.19;1738430;81;21306;-63
2021/06/11 03:29:39;;;;;;;7.22;4.95;;;;;;;18.89;70.34;100005.02;1717602;81;21026;-64
2021/06/11 03:32:09;;;;;;;8.03;5.60;;;;;;;18.85;70.38;100013.08;1751344;81;22176;-64
2021/06/11 03:34:39;;;;;;;8.13;5.78;;;;;;;18.83;70.48;100015.08;1743754;80;21126;-63
2021/06/11 03:37:12;;;;;;;7.75;5.53;;;;;;;18.78;70.69;100016.95;1743280;81;21036;-63
2021/06/11 03:39:43;;;;;;;9.08;6.10;;;;;;;18.75;70.73;100022.14;1740192;81;21069;-66
2021/06/11 03:42:10;;;;;;;11.68;6.28;;;;;;;18.73;70.71;100018.84;1725086;81;21058;-63
2021/06/11 03:44:40;;;;;;;9.28;6.30;;;;;;;18.75;70.85;100016.80;1747316;81;21113;-64
2021/06/11 03:47:07;;;;;;;8.65;6.80;;;;;;;18.75;70.74;100022.66;1738091;81;21132;-64
2021/06/11 03:49:34;;;;;;;10.68;7.33;;;;;;;18.71;70.85;100018.69;1709322;81;21151;-65
2021/06/11 03:52:00;;;;;;;12.55;5.83;;;;;;;18.68;71.15;100014.57;1723452;81;21568;-64
2021/06/11 03:54:27;;;;;;;9.15;6.45;;;;;;;18.72;71.18;100012.36;1744714;79;21065;-64
2021/06/11 03:56:54;;;;;;;8.80;6.67;;;;;;;18.83;70.96;100011.08;1746818;80;21066;-64
2021/06/11 03:59:22;;;;;;;9.65;5.75;;;;;;;18.92;70.82;100014.79;1726592;81;21519;-64
2021/06/11 04:01:50;;;;;;;9.18;6.97;;;;;;;18.99;70.50;100014.88;1770706;78;20998;-65
2021/06/11 04:04:17;;;;;;;8.80;6.92;;;;;;;19.00;70.37;100011.20;1718163;80;21467;-64
2021/06/11 04:06:51;;;;;;;8.40;6.65;;;;;;;18.94;70.68;100017.27;1745982;80;21010;-64
2021/06/11 04:09:27;;;;;;;11.25;6.42;;;;;;;18.96;70.71;100018.42;1728929;79;21575;-64
2021/06/11 04:12:01;;;;;;;8.13;6.37;;;;;;;18.94;70.74;100025.27;1749533;79;21076;-64
2021/06/11 04:14:41;;;;;;;;;;;;;;;18.97;70.93;100028.09;1764530;80;21036;-65
2021/06/11 04:17:11;;;;;;;8.28;5.62;;;;;;;19.06;70.77;100030.47;1739313;81;20139;-66
2021/06/11 04:19:42;;;;;;;8.20;5.95;;;;;;;19.07;70.07;100025.44;1755364;81;21092;-66
2021/06/11 04:22:10;;;;;;;12.95;7.45;;;;;;;19.04;70.50;100027.14;1748122;81;21060;-66
2021/06/11 04:24:37;;;;;;;6.97;5.12;;;;;;;19.06;70.37;100029.13;1762897;78;22564;-65
2021/06/11 04:27:04;;;;;;;7.67;5.53;;;;;;;19.09;70.09;100023.91;1736828;80;21036;-66
2021/06/11 04:29:32;;;;;;;10.63;6.90;;;;;;;19.11;69.97;100029.40;1762430;78;21054;-65
2021/06/11 04:31:59;;;;;;;8.93;5.25;;;;;;;19.08;69.87;100023.58;1738963;81;21595;-65
2021/06/11 04:34:25;;;;;;;8.93;4.83;;;;;;;19.09;69.99;100030.58;1743845;80;21044;-66
2021/06/11 04:36:53;;;;;;;7.05;5.10;;;;;;;19.15;69.60;100032.51;1739034;80;21121;-67
2021/06/11 04:39:19;;;;;;;7.40;5.20;;;;;;;19.20;69.53;100031.92;1719298;81;21026;-67
2021/06/11 04:41:46;;;;;;;7.42;5.00;;;;;;;19.20;69.31;100029.26;1739546;80;22447;-66
2021/06/11 04:44:12;;;;;;;7.65;4.85;;;;;;;19.21;69.27;100026.41;1701284;81;21072;-69
2021/06/11 04:46:40;;;;;;;7.42;4.53;;;;;;;19.24;69.23;100031.37;1719745;81;20998;-67
2021/06/11 04:49:07;;;;;;;7.60;5.03;;;;;;;19.31;68.91;100031.44;1744776;80;21112;-66
2021/06/11 04:51:35;;;;;;;7.20;5.08;;;;;;;19.35;68.22;100034.55;1737401;81;21123;-66
2021/06/11 04:54:01;;;;;;;11.68;7.65;;;;;;;19.34;68.53;100031.59;1759546;80;21630;-68
2021/06/11 04:56:28;;;;;;;6.75;4.37;;;;;;;19.33;68.24;100029.41;1747738;81;21053;-65
2021/06/11 04:58:55;;;;;;;15.90;8.90;;;;;;;19.36;68.13;100030.37;1734996;80;21517;-65
2021/06/11 05:01:22;;;;;;;8.33;6.17;;;;;;;19.38;68.00;100034.19;1730948;81;21140;-68
2021/06/11 05:03:48;;;;;;;9.58;5.28;;;;;;;19.39;68.22;100029.99;1732297;79;21097;-66
2021/06/11 05:06:17;;;;;;;8.15;4.70;;;;;;;19.39;68.11;100023.33;1738513;80;21535;-65
2021/06/11 05:08:45;;;;;;;6.90;4.28;;;;;;;19.46;68.25;100031.40;1733799;81;21710;-67
2021/06/11 05:11:11;;;;;;;8.28;4.65;;;;;;;19.52;67.58;100029.80;1734440;79;21113;-65
2021/06/11 05:13:39;;;;;;;8.48;4.75;;;;;;;19.51;67.45;100029.50;1731802;81;22355;-66
2021/06/11 05:16:05;;;;;;;8.55;4.58;;;;;;;19.47;67.42;100029.88;1740216;81;21045;-66
2021/06/11 05:18:32;;;;;;;6.42;4.08;;;;;;;19.46;67.50;100025.55;1720950;81;21018;-67
2021/06/11 05:20:59;;;;;;;7.53;4.30;;;;;;;19.52;66.96;100029.80;1748553;79;21023;-66
2021/06/11 05:23:27;;;;;;;9.08;4.75;;;;;;;19.52;67.37;100032.47;1713593;81;21046;-66
2021/06/11 05:25:59;;;;;;;7.78;4.25;;;;;;;19.50;67.81;100032.66;1739136;81;21118;-66
2021/06/11 05:28:24;;;;;;;6.25;4.37;;;;;;;19.57;67.96;100028.23;1740908;79;20982;-65
2021/06/11 05:30:53;;;;;;;12.23;5.70;;;;;;;19.72;67.64;100028.17;1742526;79;21086;-68
2021/06/11 05:33:22;;;;;;;6.67;4.62;;;;;;;19.82;66.99;100029.19;1745459;79;21038;-68
2021/06/11 05:35:49;;;;;;;7.62;4.45;;;;;;;19.86;67.00;100026.47;1742257;81;21548;-67
2021/06/11 05:38:15;;;;;;;6.50;4.30;;;;;;;19.92;67.31;100030.20;1742712;81;21124;-67
2021/06/11 05:40:42;;;;;;;7.75;4.17;;;;;;;20.03;67.07;100033.17;1742542;81;22359;-66
2021/06/11 05:43:13;;;;;;;7.45;4.90;;;;;;;20.14;66.79;100031.84;1735313;79;21133;-66
2021/06/11 05:45:38;;;;;;;9.00;4.92;;;;;;;20.20;66.20;100037.72;1735233;81;21078;-67
2021/06/11 05:48:07;;;;;;;7.92;4.72;;;;;;;20.22;66.00;100030.36;1732388;80;21540;-68
2021/06/11 05:50:34;;;;;;;10.45;7.90;;;;;;;20.25;65.65;100040.34;1737569;79;21118;-67
2021/06/11 05:53:00;;;;;;;9.43;6.90;;;;;;;20.25;65.08;100036.33;1715797;81;21090;-67
2021/06/11 05:55:27;;;;;;;11.55;7.53;;;;;;;20.26;64.97;100040.63;1735667;81;21753;-68
2021/06/11 05:57:54;;;;;;;8.33;5.80;;;;;;;20.21;65.00;100042.58;1719097;81;21339;-68
2021/06/11 06:00:21;;;;;;;13.90;6.12;;;;;;;20.19;65.43;100044.10;1712631;81;20999;-69
2021/06/11 06:02:48;;;;;;;9.15;6.25;;;;;;;20.22;65.84;100041.53;1742715;81;21090;-69
2021/06/11 06:05:15;;;;;;;10.58;7.40;;;;;;;20.30;65.40;100050.75;1735714;81;21165;-68
2021/06/11 06:07:42;;;;;;;8.30;5.00;;;;;;;20.35;65.19;100054.98;1746573;79;21061;-68
2021/06/11 06:10:11;;;;;;;18.17;13.43;;;;;;;20.34;65.47;100049.84;1716413;79;22569;-65
2021/06/11 06:12:37;;;;;;;7.45;5.00;;;;;;;20.34;65.29;100052.52;1741154;79;21038;-65
2021/06/11 06:15:06;;;;;;;9.38;5.87;;;;;;;20.38;65.45;100061.81;1739751;79;22305;-69
2021/06/11 06:17:35;;;;;;;11.18;6.87;;;;;;;20.42;65.22;100059.05;1715691;81;21363;-68
2021/06/11 06:20:07;;;;;;;7.58;4.72;;;;;;;20.44;65.18;100053.51;1746693;81;21730;-68
2021/06/11 06:22:34;;;;;;;8.48;5.90;;;;;;;20.42;64.96;100053.70;1721426;81;21145;-65
2021/06/11 06:25:01;;;;;;;8.05;5.47;;;;;;;20.42;64.89;100059.05;1734390;79;21008;-66
2021/06/11 06:27:27;;;;;;;8.45;5.40;;;;;;;20.45;65.01;100061.33;1744132;79;21122;-65
2021/06/11 06:29:53;;;;;;;7.42;4.80;;;;;;;20.53;64.83;100063.86;1713527;81;21568;-67
2021/06/11 06:32:20;;;;;;;7.50;5.55;;;;;;;20.58;64.52;100062.75;1743337;81;21132;-66
2021/06/11 06:34:46;;;;;;;7.25;4.97;;;;;;;20.55;64.47;100063.14;1750402;79;21559;-67
2021/06/11 06:37:14;;;;;;;8.35;4.87;;;;;;;20.50;64.46;100063.42;1747886;81;21015;-65
2021/06/11 06:39:42;;;;;;;6.50;4.87;;;;;;;20.44;64.51;100061.52;1742728;81;22201;-65
2021/06/11 06:42:09;;;;;;;8.05;4.67;;;;;;;20.46;64.34;100064.83;1744386;81;21008;-66
2021/06/11 06:44:37;;;;;;;6.78;4.03;;;;;;;20.50;64.50;100070.92;1747207;81;21034;-66
2021/06/11 06:47:04;;;;;;;7.40;5.53;;;;;;;20.52;64.76;100069.39;1740007;81;21642;-65
2021/06/11 06:49:33;;;;;;;8.40;5.15;;;;;;;20.57;64.54;100066.44;1748403;79;21196;-65
2021/06/11 06:51:59;;;;;;;6.37;4.50;;;;;;;20.62;64.24;100064.52;1747302;79;21138;-65
2021/06/11 06:54:26;;;;;;;7.80;4.42;;;;;;;20.70;63.30;100064.92;1738178;81;21054;-65
2021/06/11 06:56:52;;;;;;;9.58;4.33;;;;;;;20.83;63.50;100064.99;1740069;81;21013;-66
2021/06/11 06:59:21;;;;;;;6.60;4.42;;;;;;;20.95;62.98;100062.06;1743632;81;21018;-67
2021/06/11 07:01:49;;;;;;;7.05;4.78;;;;;;;21.03;61.84;100057.56;1740992;81;21053;-67
2021/06/11 07:04:17;;;;;;;6.30;4.03;;;;;;;21.08;61.66;100055.11;1742195;81;21828;-66
2021/06/11 07:06:49;;;;;;;6.97;4.72;;;;;;;21.09;62.01;100054.09;1743253;81;21129;-68
2021/06/11 07:09:13;;;;;;;8.30;4.03;;;;;;;21.10;62.12;100052.56;1744667;81;21536;-66
2021/06/11 07:11:39;;;;;;;7.78;4.28;;;;;;;21.16;61.87;100049.58;1743918;79;21058;-66
2021/06/11 07:14:06;;;;;;;9.13;4.25;;;;;;;21.24;61.64;100055.28;1719451;81;21118;-68
2021/06/11 07:16:32;;;;;;;6.20;3.87;;;;;;;21.28;61.05;100055.18;1747718;79;21133;-67
2021/06/11 07:19:00;;;;;;;8.80;3.70;;;;;;;21.33;60.50;100060.27;1749398;79;22247;-67
2021/06/11 07:21:28;;;;;;;6.08;3.75;;;;;;;21.33;59.83;100060.27;1740666;81;21070;-68
2021/06/11 07:23:55;;;;;;;7.22;3.95;;;;;;;21.26;59.87;100063.41;1741263;81;21039;-68
2021/06/11 07:26:22;;;;;;;8.65;4.47;;;;;;;21.24;60.18;100056.09;1713671;81;21473;-67
2021/06/11 07:28:48;;;;;;;7.10;3.80;;;;;;;21.27;59.81;100058.38;1737449;79;21161;-68
2021/06/11 07:31:15;;;;;;;6.05;3.67;;;;;;;21.32;60.11;100057.26;1743359;81;21109;-67
2021/06/11 07:33:41;;;;;;;5.72;3.55;;;;;;;21.37;60.18;100056.66;1734446;81;21066;-67
2021/06/11 07:36:08;;;;;;;6.28;3.58;;;;;;;21.41;59.74;100061.09;1740840;81;21066;-69
2021/06/11 07:38:34;;;;;;;6.45;3.75;;;;;;;21.40;59.64;100058.09;1720624;79;21085;-69
2021/06/11 07:41:01;;;;;;;5.42;3.65;;;;;;;21.42;59.31;100065.44;1742690;79;21536;-68
2021/06/11 07:43:27;;;;;;;6.60;3.35;;;;;;;21.38;58.45;100064.98;1717642;81;21030;-68
2021/06/11 07:45:54;;;;;;;6.78;3.70;;;;;;;21.29;59.05;100058.18;1717711;81;21065;-68
2021/06/11 07:48:20;;;;;;;5.78;2.95;;;;;;;21.27;58.59;100066.41;1744781;79;21097;-67
2021/06/11 07:50:47;;;;;;;10.68;3.58;;;;;;;21.32;58.99;100060.46;1738306;81;21065;-67
2021/06/11 07:53:13;;;;;;;7.03;3.47;;;;;;;21.34;58.93;100063.75;1746261;81;21124;-68
2021/06/11 07:55:41;;;;;;;6.25;3.83;;;;;;;21.36;59.22;100063.03;1698951;80;21548;-68
2021/06/11 07:58:07;;;;;;;5.72;3.42;;;;;;;21.41;58.82;100064.59;1742369;79;21047;-67
2021/06/11 08:00:33;;;;;;;6.05;3.55;;;;;;;21.44;58.44;100062.85;1751825;81;21069;-69
2021/06/11 08:03:00;;;;;;;6.83;3.72;;;;;;;21.43;57.55;100059.04;1747937;81;21021;-67
2021/06/11 08:05:27;;;;;;;5.70;2.98;;;;;;;21.43;58.41;100065.73;1750717;81;21132;-68
2021/06/11 08:07:54;;;;;;;5.95;3.58;;;;;;;21.51;58.52;100066.91;1748399;79;21104;-68
2021/06/11 08:10:21;;;;;;;6.40;3.17;;;;;;;21.61;57.42;100061.99;1721580;81;21045;-69
2021/06/11 08:12:48;;;;;;;7.15;3.47;;;;;;;21.64;57.45;100066.12;1748495;79;21036;-68
2021/06/11 08:15:14;;;;;;;8.43;3.58;;;;;;;21.67;56.78;100066.55;1748633;81;21116;-68
2021/06/11 08:17:41;;;;;;;6.17;3.42;;;;;;;21.67;57.24;100065.20;1741919;80;21297;-68
2021/06/11 08:20:10;;;;;;;6.33;2.98;;;;;;;21.70;57.76;100067.97;1754575;81;21002;-67
2021/06/11 08:22:39;;;;;;;5.62;3.02;;;;;;;21.75;57.08;100072.72;1746982;80;22241;-69
2021/06/11 08:25:08;;;;;;;5.53;3.40;;;;;;;21.81;57.00;100059.34;1772198;80;21037;-67
2021/06/11 08:27:34;;;;;;;5.50;3.33;;;;;;;21.88;56.36;100062.84;1724602;81;21097;-68
2021/06/11 08:30:00;;;;;;;5.62;3.10;;;;;;;21.97;56.56;100064.84;1746300;80;21080;-68
2021/06/11 08:32:27;;;;;;;5.47;2.70;;;;;;;22.02;55.50;100061.02;1757604;80;21595;-68
2021/06/11 08:34:54;;;;;;;5.97;2.67;;;;;;;22.07;55.77;100067.08;1729926;81;21614;-68
2021/06/11 08:37:22;;;;;;;5.10;2.70;;;;;;;22.10;54.90;100071.21;1757912;81;21088;-69
2021/06/11 08:39:53;;;;;;;5.45;2.70;;;;;;;22.11;54.98;100066.99;1756408;81;21064;-68
2021/06/11 08:42:17;;;;;;;6.83;3.45;;;;;;;22.15;54.70;100068.73;1746932;81;21603;-68
2021/06/11 08:44:43;;;;;;;5.45;2.98;;;;;;;22.17;54.51;100068.02;1754960;81;21056;-68
2021/06/11 08:47:10;;;;;;;6.92;3.00;;;;;;;22.20;54.63;100068.41;1749803;80;21599;-68
2021/06/11 08:49:40;;;;;;;4.62;2.47;;;;;;;22.23;54.43;100063.17;1731309;81;21095;-68
2021/06/11 08:52:07;;;;;;;6.10;3.25;;;;;;;22.28;53.81;100067.92;1733063;79;21045;-68
2021/06/11 08:54:36;;;;;;;6.37;3.20;;;;;;;22.25;52.59;100068.62;1728658;80;21061;-68
2021/06/11 08:57:03;;;;;;;5.45;2.77;;;;;;;22.24;53.36;100064.31;1750417;80;21064;-69
2021/06/11 08:59:30;;;;;;;5.90;3.22;;;;;;;22.23;53.53;100068.01;1752893;79;21729;-68
2021/06/11 09:01:56;;;;;;;5.80;3.20;;;;;;;22.28;53.64;100064.75;1748515;79;21084;-68
2021/06/11 09:04:43;;;;;;;5.42;3.17;;;;;;;22.36;53.18;100069.05;1722694;81;21116;-68
2021/06/11 09:07:33;;;;;;;5.08;2.95;;;;;;;22.40;53.78;100077.00;1749205;80;21153;-68
2021/06/11 09:10:04;;;;;;;5.10;2.75;;;;;;;22.41;52.58;100062.05;1751004;81;21033;-69
2021/06/11 09:12:38;;;;;;;6.10;3.50;;;;;;;22.45;53.49;100064.61;1750763;81;21117;-69
2021/06/11 09:15:16;;;;;;;5.20;2.92;;;;;;;22.52;53.79;100063.26;1745497;81;21068;-69
2021/06/11 09:17:52;;;;;;;6.33;3.02;;;;;;;22.61;53.00;100064.70;1723737;81;21085;-69
2021/06/11 09:20:22;;;;;;;9.23;3.47;;;;;;;22.68;53.35;100052.61;1749609;81;21105;-68
2021/06/11 09:22:54;;;;;;;7.00;3.40;;;;;;;22.71;51.94;100055.38;1748896;81;21069;-68
2021/06/11 09:25:34;;;;;;;5.30;2.90;;;;;;;22.67;52.02;100057.66;1748799;81;21077;-68
2021/06/11 09:28:14;;;;;;;8.08;3.40;;;;;;;22.62;52.85;100060.97;1751308;79;21060;-68
2021/06/11 09:30:48;;;;;;;5.85;3.12;;;;;;;22.67;53.88;100056.84;1746650;81;21069;-68
2021/06/11 09:33:20;;;;;;;6.00;3.37;;;;;;;22.66;53.18;100055.19;1753848;81;21117;-68
2021/06/11 09:35:53;;;;;;;5.70;3.42;;;;;;;22.58;53.86;100053.58;1749096;81;21561;-70
2021/06/11 09:38:27;;;;;;;6.35;2.92;;;;;;;22.54;53.21;100055.01;1755775;81;21054;-67
2021/06/11 09:41:02;;;;;;;6.65;3.05;;;;;;;22.49;52.55;100052.95;1714809;81;21038;-68
2021/06/11 09:43:31;;;;;;;5.95;3.00;;;;;;;22.49;52.09;100050.80;1729380;81;21451;-67
2021/06/11 09:46:14;;;;;;;6.70;3.55;;;;;;;22.48;52.30;100047.30;1750225;79;22436;-68
2021/06/11 09:48:45;;;;;;;4.95;2.67;;;;;;;22.44;52.88;100050.07;1747214;79;21088;-68
2021/06/11 09:51:20;;;;;;;6.83;3.05;;;;;;;22.44;52.72;100050.92;1743321;79;22179;-68
2021/06/11 09:53:46;;;;;;;5.12;2.80;;;;;;;22.45;52.96;100047.19;1715844;81;21049;-67
2021/06/11 09:58:12;;;;;;;5.35;2.72;;;;;;;22.59;51.10;100040.45;1792195;78;22693;-70
2021/06/11 10:02:59;;;;;;;5.42;2.60;;;;;;;22.70;51.47;100043.02;1772638;78;23227;-69
2021/06/11 10:05:28;;;;;;;4.67;3.00;;;;;;;22.73;51.10;100042.58;1742384;80;21046;-69
2021/06/11 10:07:55;;;;;;;5.22;2.80;;;;;;;22.85;50.89;100042.74;1728753;81;21690;-68
2021/06/11 10:10:22;;;;;;;5.83;3.80;;;;;;;22.95;51.37;100046.64;1730617;81;21065;-69
2021/06/11 10:12:48;;;;;;;5.12;2.92;;;;;;;23.02;51.96;100038.56;1688726;83;21041;-69
2021/06/11 10:15:16;;;;;;;5.75;3.75;;;;;;;23.06;51.78;100039.80;1662019;83;21129;-70
2021/06/11 10:17:42;;;;;;;6.53;3.37;;;;;;;23.07;51.89;100040.12;1690182;83;21050;-70
2021/06/11 10:20:13;;;;;;;7.50;3.75;;;;;;;23.13;52.53;100042.45;1690196;83;21103;-70
2021/06/11 10:22:40;;;;;;;6.10;3.42;;;;;;;23.16;52.09;100048.22;1637096;83;21045;-70
2021/06/11 10:25:11;;;;;;;6.55;4.35;;;;;;;23.19;52.27;100048.32;1692426;83;21098;-71
2021/06/11 10:27:36;;;;;;;8.50;3.90;;;;;;;23.23;52.45;100044.69;1692070;83;20930;-67
2021/06/11 10:30:03;;;;;;;8.33;4.33;;;;;;;23.27;52.08;100044.58;1669256;84;21131;-67
2021/06/11 10:32:30;;;;;;;7.72;3.72;;;;;;;23.32;52.19;100044.75;1681660;83;21149;-68
2021/06/11 10:34:56;;;;;;;6.08;4.40;;;;;;;23.38;51.84;100041.19;1681270;83;22276;-67
2021/06/11 10:37:42;;;;;;;5.87;3.50;;;;;;;23.45;50.62;100035.28;1680921;83;22539;-67
2021/06/11 10:40:24;;;;;;;7.67;4.12;;;;;;;23.51;51.47;100034.93;1680657;83;21089;-68
2021/06/11 10:42:51;;;;;;;7.15;3.85;;;;;;;23.61;51.48;100030.42;1681925;83;21038;-68
2021/06/11 10:45:41;;;;;;;6.12;3.85;;;;;;;23.74;51.68;100023.09;1682349;83;21180;-68
2021/06/11 10:48:08;;;;;;;5.45;3.30;;;;;;;23.85;49.89;100021.58;1662450;83;21010;-68
2021/06/11 10:50:36;;;;;;;6.35;3.47;;;;;;;23.88;48.17;100018.98;1682076;83;20928;-68
2021/06/11 10:53:29;;;;;;;5.60;3.58;;;;;;;23.87;48.31;100016.83;1682230;83;21410;-68
2021/06/11 10:56:13;;;;;;;9.43;3.50;;;;;;;23.93;49.45;100016.46;1651737;83;21071;-68
2021/06/11 10:58:39;;;;;;;5.53;3.20;;;;;;;24.03;49.51;100017.31;1655210;84;22105;-68
2021/06/11 11:01:29;;;;;;;5.97;3.17;;;;;;;24.08;49.85;100011.56;1680415;83;21065;-68
2021/06/11 11:04:00;;;;;;;7.28;3.70;;;;;;;24.04;50.62;100017.09;1672470;83;21087;-69
2021/06/11 11:06:32;;;;;;;6.05;3.62;;;;;;;24.01;50.25;100019.41;1666993;84;21501;-68
2021/06/11 11:09:09;;;;;;;6.17;3.60;;;;;;;23.92;50.29;100019.68;1645735;83;22185;-69
2021/06/11 11:11:35;;;;;;;6.72;3.00;;;;;;;23.90;50.38;100016.89;1648323;85;21072;-68
2021/06/11 11:14:03;;;;;;;5.00;2.70;;;;;;;23.91;51.01;100013.18;1675567;83;21016;-68
2021/06/11 11:16:35;;;;;;;5.37;2.80;;;;;;;24.04;51.67;100010.37;1673381;84;21079;-68
2021/06/11 11:18:58;;;;;;;5.42;3.00;;;;;;;24.23;51.19;100005.84;1648928;85;21015;-68
2021/06/11 11:21:30;;;;;;;4.92;2.98;;;;;;;24.39;50.58;100008.99;1648635;83;21093;-69
2021/06/11 11:23:59;;;;;;;6.35;3.47;;;;;;;24.51;49.94;99999.16;1680786;83;21840;-68
2021/06/11 11:26:47;;;;;;;5.28;3.25;;;;;;;24.56;48.63;100003.88;1681738;83;21309;-68
2021/06/11 11:29:17;;;;;;;7.08;3.42;;;;;;;24.51;48.82;99999.66;1686155;83;21347;-68
2021/06/11 11:31:45;;;;;;;5.75;3.58;;;;;;;24.42;49.68;100001.30;1712705;82;21093;-68
2021/06/11 11:34:15;;;;;;;5.17;3.15;;;;;;;24.34;49.58;100000.25;1683314;83;21785;-68
2021/06/11 11:36:42;;;;;;;5.72;3.58;;;;;;;24.15;49.95;99999.94;1657478;83;21085;-68
2021/06/11 11:39:11;;;;;;;7.22;3.55;;;;;;;23.93;49.96;100001.69;1679932;83;21038;-68